Recharge — WDG3657 — position and weather

sailwx.info

Track history (hours):
 
Tides and Currents Weather Stations Pressure Air Temp Water Temp Dewpoint Dewpoint Depression Visibility Wind Speed Wind Dir Waves Ship Positions

Recharge

More information available from US FCC via Universal Licensing System and Coast Guard Vessel Documentation Center.

Last reported at 2014-Jul-05 20:23 UTC. Time now 2014-Jul-29 04:39 UTC.
Position N 47°60' W 122°13'.
Warning: this ship's position is 23 days out of date.

Length 12 m.

Type: Sailing vessel. MMSI: 367528340.

Date/timePositionNaut miles runAvg speedWind from/ knotsBaromVisibWave heightAir tempDewpointWater temp
2014-Jul-05 20:23N 47°60' W 122°13'8 6.1
2014-Jul-05 19:07N 48°03' W 122°24'2 0.0
2014-Jul-03 19:32N 48°05' W 122°26'7 6.5
2014-Jul-03 18:28N 48°01' W 122°18'  
2014-Jun-29 18:18N 48°00' W 122°13'3 3.6
2014-Jun-29 17:30N 48°00' W 122°17'32 1.3
2014-Jun-28 16:32N 48°27' W 122°43'8 7.5
2014-Jun-28 15:32N 48°33' W 122°50'4 3.9
2014-Jun-28 14:33N 48°31' W 122°55'0 0.0
2014-Jun-27 21:08N 48°31' W 122°55'2 3.5
2014-Jun-27 20:33N 48°32' W 122°57'2 1.6
2014-Jun-27 19:33N 48°33' W 122°59'1 0.4
2014-Jun-27 16:19N 48°32' W 123°01'2 2.5
2014-Jun-27 15:29N 48°34' W 123°02'  
Track history (hours):
 
Tides and Currents Weather Stations Pressure Air Temp Water Temp Dewpoint Dewpoint Depression Visibility Wind Speed Wind Dir Waves Ship Positions

Recharge

More information available from US FCC via Universal Licensing System and Coast Guard Vessel Documentation Center.

Last reported at 2014-Jul-05 20:23 UTC. Time now 2014-Jul-29 04:39 UTC.
Position N 47°60' W 122°13'.
Warning: this ship's position is 23 days out of date.

Length 12 m.

Type: Sailing vessel. MMSI: 367528340.

Date/timePositionNaut miles runAvg speedWind from/ knotsBaromVisibWave heightAir tempDewpointWater temp
2014-Jul-05 20:23N 47°60' W 122°13'8 6.1
2014-Jul-05 19:07N 48°03' W 122°24'2 0.0
2014-Jul-03 19:32N 48°05' W 122°26'7 6.5
2014-Jul-03 18:28N 48°01' W 122°18'  
2014-Jun-29 18:18N 48°00' W 122°13'3 3.6
2014-Jun-29 17:30N 48°00' W 122°17'32 1.3
2014-Jun-28 16:32N 48°27' W 122°43'8 7.5
2014-Jun-28 15:32N 48°33' W 122°50'4 3.9
2014-Jun-28 14:33N 48°31' W 122°55'0 0.0
2014-Jun-27 21:08N 48°31' W 122°55'2 3.5
2014-Jun-27 20:33N 48°32' W 122°57'2 1.6
2014-Jun-27 19:33N 48°33' W 122°59'1 0.4
2014-Jun-27 16:19N 48°32' W 123°01'2 2.5
2014-Jun-27 15:29N 48°34' W 123°02'  

Dump ship's entire track history